Time;durP1;ratioP1;P1;durP2;ratioP2;P2;SDS_P1;SDS_P2;PMS_P1;PMS_P2;Temp;Humidity;BMP_temperature;BMP_pressure;BME280_temperature;BME280_humidity;BME280_pressure;Samples;Min_cycle;Max_cycle;Signal;HPM_P1;HPM_P2
2021/01/10 00:02:15;;;;;;;19.85;11.55;;;0.30;99.90;;;;;;5088598;28;20425;-66
2021/01/10 00:04:42;;;;;;;16.27;10.60;;;0.30;99.90;;;;;;5085448;28;20040;-66
2021/01/10 00:07:08;;;;;;;18.80;10.65;;;0.30;99.90;;;;;;5075651;28;20048;-66
2021/01/10 00:09:35;;;;;;;20.27;11.90;;;0.20;99.90;;;;;;5087226;28;20527;-66
2021/01/10 00:12:02;;;;;;;19.35;10.52;;;0.20;99.90;;;;;;5090766;28;20109;-66
2021/01/10 00:14:28;;;;;;;17.92;11.65;;;0.10;99.90;;;;;;5075899;28;20127;-66
2021/01/10 00:16:55;;;;;;;20.55;11.85;;;0.00;99.90;;;;;;5090110;28;20040;-66
2021/01/10 00:19:22;;;;;;;20.13;11.82;;;-0.10;99.90;;;;;;5081913;28;20049;-67
2021/01/10 00:21:48;;;;;;;17.95;10.82;;;-0.20;99.90;;;;;;5094113;28;20040;-68
2021/01/10 00:24:15;;;;;;;17.13;10.30;;;-0.20;99.90;;;;;;5089375;28;20052;-67
2021/01/10 00:26:41;;;;;;;18.60;10.82;;;-0.20;99.90;;;;;;5068864;28;20466;-67
2021/01/10 00:29:08;;;;;;;20.65;11.65;;;-0.30;99.90;;;;;;5096308;28;20079;-67
2021/01/10 00:31:35;;;;;;;20.02;12.13;;;-0.30;99.90;;;;;;5085977;28;20405;-67
2021/01/10 00:34:05;;;;;;;21.15;11.57;;;-0.30;99.90;;;;;;5097124;28;20069;-66
2021/01/10 00:36:40;;;;;;;21.70;12.43;;;-0.30;99.90;;;;;;5096291;28;20135;-67
2021/01/10 00:39:06;;;;;;;20.50;12.43;;;-0.20;99.90;;;;;;5091677;28;20044;-67
2021/01/10 00:41:39;;;;;;;20.92;11.60;;;-0.30;99.90;;;;;;5092918;28;20044;-67
2021/01/10 00:44:06;;;;;;;20.30;10.80;;;-0.30;99.90;;;;;;5096999;28;20048;-67
2021/01/10 00:46:33;;;;;;;21.08;10.88;;;-0.40;99.90;;;;;;5100238;28;20044;-68
2021/01/10 00:49:01;;;;;;;17.73;10.95;;;-0.40;99.90;;;;;;5096764;28;20314;-68
2021/01/10 00:51:29;;;;;;;18.95;10.50;;;-0.40;99.90;;;;;;5098182;28;20564;-68
2021/01/10 00:53:56;;;;;;;19.38;10.48;;;-0.40;99.90;;;;;;5096968;28;20405;-68
2021/01/10 00:56:22;;;;;;;17.13;10.98;;;-0.40;99.90;;;;;;5098957;28;20048;-66
2021/01/10 00:58:49;;;;;;;22.67;11.43;;;-0.30;99.90;;;;;;5095931;28;20048;-67
2021/01/10 01:01:15;;;;;;;17.10;10.02;;;-0.30;99.90;;;;;;5078448;28;20047;-67
2021/01/10 01:03:42;;;;;;;16.67;10.05;;;-0.20;99.90;;;;;;5097345;28;20091;-67
2021/01/10 01:06:12;;;;;;;19.73;10.35;;;-0.20;99.90;;;;;;5096788;28;20066;-67
2021/01/10 01:08:40;;;;;;;17.42;9.93;;;-0.20;99.90;;;;;;5096596;28;20094;-68
2021/01/10 01:11:07;;;;;;;18.75;10.80;;;-0.20;99.90;;;;;;5096662;28;20093;-67
2021/01/10 01:13:33;;;;;;;17.77;10.48;;;-0.20;99.90;;;;;;5089094;28;20052;-67
2021/01/10 01:16:01;;;;;;;19.00;10.50;;;-0.20;99.90;;;;;;5091514;28;20044;-67
2021/01/10 01:18:28;;;;;;;20.08;11.05;;;-0.10;99.90;;;;;;5096247;28;20478;-67
2021/01/10 01:20:54;;;;;;;18.00;11.07;;;-0.10;99.90;;;;;;5084610;28;20074;-67
2021/01/10 01:23:21;;;;;;;19.85;10.65;;;-0.10;99.90;;;;;;5081479;28;20507;-67
2021/01/10 01:25:49;;;;;;;19.20;11.18;;;-0.10;99.90;;;;;;5078889;28;20085;-67
2021/01/10 01:28:16;;;;;;;17.33;10.80;;;-0.10;99.90;;;;;;5089937;28;20054;-66
2021/01/10 01:30:42;;;;;;;18.67;10.82;;;-0.10;99.90;;;;;;5085782;28;20135;-66
2021/01/10 01:33:09;;;;;;;18.10;10.35;;;0.00;99.90;;;;;;5076043;28;20422;-66
2021/01/10 01:35:36;;;;;;;19.08;11.15;;;0.00;99.90;;;;;;5086214;28;20040;-68
2021/01/10 01:38:03;;;;;;;22.40;11.25;;;0.00;99.90;;;;;;5069681;28;20139;-66
2021/01/10 01:40:30;;;;;;;18.50;10.93;;;-0.10;99.90;;;;;;5077449;28;20475;-67
2021/01/10 01:42:56;;;;;;;22.33;12.32;;;-0.10;99.90;;;;;;5084496;28;20044;-66
2021/01/10 01:45:22;;;;;;;20.60;11.57;;;-0.20;99.90;;;;;;5092800;28;20413;-66
2021/01/10 01:47:49;;;;;;;19.88;10.73;;;-0.20;99.90;;;;;;5093138;28;20050;-67
2021/01/10 01:50:16;;;;;;;19.75;10.90;;;-0.20;99.90;;;;;;5091602;28;20047;-66
2021/01/10 01:52:42;;;;;;;19.15;11.68;;;-0.30;99.90;;;;;;5092634;28;20051;-67
2021/01/10 01:55:09;;;;;;;18.58;11.27;;;-0.30;99.90;;;;;;5092967;28;20055;-66
2021/01/10 01:57:38;;;;;;;20.77;11.85;;;-0.30;99.90;;;;;;5092792;28;20119;-67
2021/01/10 02:00:05;;;;;;;18.63;11.40;;;-0.20;99.90;;;;;;5092613;28;20062;-66
2021/01/10 02:02:32;;;;;;;18.40;10.73;;;-0.30;99.90;;;;;;5092498;28;20094;-66
2021/01/10 02:05:07;;;;;;;19.73;11.38;;;-0.30;99.90;;;;;;5092562;28;20048;-66
2021/01/10 02:07:57;;;;;;;19.02;10.52;;;-0.20;99.90;;;;;;5092710;28;20468;-66
2021/01/10 02:10:28;;;;;;;19.10;11.07;;;-0.20;99.90;;;;;;5092281;28;20444;-66
2021/01/10 02:12:59;;;;;;;19.33;11.27;;;-0.30;99.90;;;;;;5087641;28;20134;-66
2021/01/10 02:15:30;;;;;;;17.80;10.93;;;-0.30;99.90;;;;;;5082440;28;20055;-66
2021/01/10 02:17:58;;;;;;;20.65;12.13;;;-0.30;99.90;;;;;;5076516;28;20044;-66
2021/01/10 02:20:28;;;;;;;19.20;11.77;;;-0.30;99.90;;;;;;5081344;28;20108;-67
2021/01/10 02:23:12;;;;;;;20.25;11.82;;;-0.30;99.90;;;;;;5079417;28;20127;-66
2021/01/10 02:25:42;;;;;;;21.42;12.25;;;-0.30;99.90;;;;;;5092149;28;20052;-66
2021/01/10 02:28:10;;;;;;;21.65;12.27;;;-0.40;99.90;;;;;;5090490;28;20055;-67
2021/01/10 02:30:43;;;;;;;20.70;11.45;;;-0.40;99.90;;;;;;5081442;28;20055;-66
2021/01/10 02:33:17;;;;;;;;;;;-0.50;99.90;;;;;;5091468;28;20062;-67
2021/01/10 02:35:46;;;;;;;20.45;12.07;;;-0.50;99.90;;;;;;5080960;28;19920;-69
2021/01/10 02:38:48;;;;;;;22.30;12.57;;;-0.60;99.90;;;;;;5072573;28;20055;-68
2021/01/10 02:41:34;;;;;;;20.23;12.02;;;-0.60;99.90;;;;;;5088980;28;20524;-68
2021/01/10 02:44:33;;;;;;;20.08;10.93;;;-0.60;99.90;;;;;;5092037;28;20126;-68
2021/01/10 02:47:01;;;;;;;22.13;11.98;;;-0.60;99.90;;;;;;5047024;28;20075;-68
2021/01/10 02:49:28;;;;;;;22.92;12.07;;;-0.60;99.90;;;;;;5092274;28;20131;-68
2021/01/10 02:51:54;;;;;;;21.80;12.30;;;-0.70;99.90;;;;;;5091323;28;20403;-67
2021/01/10 02:54:21;;;;;;;21.98;11.95;;;-0.70;99.90;;;;;;5087444;28;20051;-67
2021/01/10 02:56:58;;;;;;;19.35;11.57;;;-0.80;99.90;;;;;;5091297;28;20478;-67
2021/01/10 02:59:27;;;;;;;21.15;11.27;;;-0.80;99.90;;;;;;5105207;28;20048;-68
2021/01/10 03:02:01;;;;;;;20.08;10.90;;;-0.90;99.90;;;;;;5091532;28;20383;-68
2021/01/10 03:04:29;;;;;;;21.27;11.68;;;-1.00;99.90;;;;;;5089565;28;20050;-67
2021/01/10 03:06:58;;;;;;;19.48;11.77;;;-1.10;99.90;;;;;;5091518;28;20135;-67
2021/01/10 03:09:25;;;;;;;20.83;11.20;;;-1.20;99.90;;;;;;5073714;28;20167;-67
2021/01/10 03:11:54;;;;;;;21.67;11.18;;;-1.20;99.90;;;;;;5091567;28;20566;-68
2021/01/10 03:14:22;;;;;;;18.67;11.10;;;-1.30;99.90;;;;;;5090569;28;20127;-67
2021/01/10 03:16:50;;;;;;;19.88;11.05;;;-1.40;99.90;;;;;;5090294;28;20155;-68
2021/01/10 03:19:17;;;;;;;20.63;11.65;;;-1.50;99.90;;;;;;5083161;28;20406;-68
2021/01/10 03:21:43;;;;;;;23.80;12.68;;;-1.50;99.90;;;;;;5090606;28;20052;-67
2021/01/10 03:24:10;;;;;;;21.10;11.52;;;-1.60;99.90;;;;;;5090110;28;20508;-67
2021/01/10 03:26:37;;;;;;;21.35;11.10;;;-1.70;99.90;;;;;;5091325;28;20062;-67
2021/01/10 03:29:04;;;;;;;23.15;11.73;;;-1.70;99.90;;;;;;5091241;28;20087;-68
2021/01/10 03:31:30;;;;;;;22.67;11.52;;;-1.80;99.90;;;;;;5090665;28;20056;-67
2021/01/10 03:33:57;;;;;;;20.55;10.82;;;-1.80;99.90;;;;;;5091364;28;20098;-67
2021/01/10 03:36:24;;;;;;;22.50;12.50;;;-1.90;99.90;;;;;;5091082;28;20051;-67
2021/01/10 03:38:50;;;;;;;21.73;12.10;;;-1.90;99.90;;;;;;5082402;28;20050;-67
2021/01/10 03:41:16;;;;;;;20.23;11.57;;;-2.00;99.90;;;;;;5089565;28;20462;-67
2021/01/10 03:43:43;;;;;;;21.38;12.10;;;-2.00;99.90;;;;;;5088413;28;20127;-67
2021/01/10 03:46:09;;;;;;;19.38;11.32;;;-2.00;99.90;;;;;;5071675;28;20530;-65
2021/01/10 03:48:36;;;;;;;21.50;11.05;;;-2.00;99.90;;;;;;5089502;28;20048;-64
2021/01/10 03:51:04;;;;;;;19.80;11.50;;;-2.10;99.90;;;;;;5090028;28;20130;-65
2021/01/10 03:53:34;;;;;;;26.38;12.95;;;-2.10;99.90;;;;;;5084898;28;20387;-65
2021/01/10 03:56:02;;;;;;;22.05;12.60;;;-2.00;99.90;;;;;;5089919;28;20435;-65
2021/01/10 03:58:29;;;;;;;25.05;12.57;;;-2.00;99.90;;;;;;5090169;28;20040;-65
2021/01/10 04:00:55;;;;;;;24.02;12.85;;;-2.00;99.90;;;;;;5087332;28;20056;-66
2021/01/10 04:03:22;;;;;;;23.73;12.27;;;-1.90;99.90;;;;;;5090501;28;20051;-69
2021/01/10 04:05:48;;;;;;;20.63;11.48;;;-1.90;99.90;;;;;;5089266;28;20052;-66
2021/01/10 04:08:15;;;;;;;24.25;12.63;;;-1.90;99.90;;;;;;5088226;28;20056;-65
2021/01/10 04:10:41;;;;;;;21.23;11.75;;;-1.80;99.90;;;;;;5089932;28;20044;-65
2021/01/10 04:13:08;;;;;;;25.25;12.63;;;-1.80;99.90;;;;;;5089965;28;20054;-65
2021/01/10 04:15:34;;;;;;;24.52;12.25;;;-1.70;99.90;;;;;;5088566;28;20047;-65
2021/01/10 04:18:01;;;;;;;21.85;12.63;;;-1.70;99.90;;;;;;5090076;28;20448;-65
2021/01/10 04:20:28;;;;;;;22.45;12.23;;;-1.70;99.90;;;;;;5089912;28;20044;-65
2021/01/10 04:22:54;;;;;;;19.20;11.63;;;-1.70;99.90;;;;;;5090416;28;20051;-65
2021/01/10 04:25:21;;;;;;;26.67;12.43;;;-1.60;99.90;;;;;;5089016;28;20138;-64
2021/01/10 04:27:48;;;;;;;20.73;11.45;;;-1.60;99.90;;;;;;5089847;28;20052;-65
2021/01/10 04:30:15;;;;;;;20.95;12.23;;;-1.50;99.90;;;;;;5090064;28;20109;-65
2021/01/10 04:32:42;;;;;;;25.20;12.43;;;-1.60;99.90;;;;;;5089849;28;20135;-67
2021/01/10 04:35:09;;;;;;;22.55;11.88;;;-1.50;99.90;;;;;;5087125;28;20524;-67
2021/01/10 04:37:35;;;;;;;21.02;12.45;;;-1.50;99.90;;;;;;5087736;28;20054;-67
2021/01/10 04:40:03;;;;;;;20.58;12.15;;;-1.50;99.90;;;;;;5086136;28;20048;-67
2021/01/10 04:42:30;;;;;;;19.75;11.38;;;-1.50;99.90;;;;;;5070806;28;20047;-67
2021/01/10 04:44:58;;;;;;;22.05;11.88;;;-1.50;99.90;;;;;;5089063;28;20044;-66
2021/01/10 04:47:26;;;;;;;22.73;12.30;;;-1.50;99.90;;;;;;5088548;28;20109;-66
2021/01/10 04:49:52;;;;;;;23.00;11.77;;;-1.50;99.90;;;;;;5072589;28;20044;-65
2021/01/10 04:52:20;;;;;;;21.00;11.90;;;-1.50;99.90;;;;;;5080164;28;20527;-65
2021/01/10 04:54:49;;;;;;;22.52;12.00;;;-1.50;99.90;;;;;;5089968;28;20412;-67
2021/01/10 04:57:20;;;;;;;21.63;12.02;;;-1.50;99.90;;;;;;5088301;28;20048;-67
2021/01/10 04:59:49;;;;;;;20.67;11.88;;;-1.50;99.90;;;;;;5090405;28;20072;-67
2021/01/10 05:02:24;;;;;;;25.27;12.80;;;-1.50;99.90;;;;;;5085292;28;20055;-67
2021/01/10 05:04:51;;;;;;;23.42;12.63;;;-1.50;99.90;;;;;;5090062;28;20413;-67
2021/01/10 05:07:17;;;;;;;21.77;12.75;;;-1.50;99.90;;;;;;5092037;28;20043;-67
2021/01/10 05:09:45;;;;;;;19.90;11.48;;;-1.50;99.90;;;;;;5094270;28;20136;-67
2021/01/10 05:12:12;;;;;;;20.92;11.82;;;-1.50;99.90;;;;;;5092343;28;20055;-67
2021/01/10 05:14:39;;;;;;;22.75;12.40;;;-1.50;99.90;;;;;;5093540;28;20058;-67
2021/01/10 05:17:15;;;;;;;21.20;11.30;;;-1.50;99.90;;;;;;5073400;28;20052;-67
2021/01/10 05:19:45;;;;;;;18.90;10.75;;;-1.50;99.90;;;;;;5093530;28;20126;-67
2021/01/10 05:22:11;;;;;;;19.05;11.45;;;-1.50;99.90;;;;;;5057155;28;20045;-67
2021/01/10 05:24:38;;;;;;;21.38;11.52;;;-1.50;99.90;;;;;;5087024;28;20052;-68
2021/01/10 05:27:05;;;;;;;20.75;11.98;;;-1.60;99.90;;;;;;5085897;28;20149;-67
2021/01/10 05:29:32;;;;;;;22.13;12.60;;;-1.60;99.90;;;;;;5091140;28;20056;-66
2021/01/10 05:32:01;;;;;;;22.30;11.77;;;-1.60;99.90;;;;;;5074494;28;20127;-66
2021/01/10 05:34:28;;;;;;;19.05;10.57;;;-1.60;99.90;;;;;;5075040;28;20048;-66
2021/01/10 05:36:58;;;;;;;21.77;11.77;;;-1.60;99.90;;;;;;5075557;28;20164;-67
2021/01/10 05:39:26;;;;;;;24.58;12.55;;;-1.50;99.90;;;;;;5093796;28;20439;-67
2021/01/10 05:41:59;;;;;;;21.45;11.63;;;-1.50;99.90;;;;;;5093759;28;20048;-66
2021/01/10 05:44:46;;;;;;;20.83;11.63;;;-1.50;99.90;;;;;;5093100;28;20050;-66
2021/01/10 05:47:14;;;;;;;22.25;12.43;;;-1.50;99.90;;;;;;5092857;28;20074;-67
2021/01/10 05:49:51;;;;;;;21.98;12.52;;;-1.50;99.90;;;;;;5092033;28;20048;-66
2021/01/10 05:52:19;;;;;;;21.08;12.05;;;-1.50;99.90;;;;;;5086483;28;20151;-67
2021/01/10 05:54:52;;;;;;;19.27;11.63;;;-1.50;99.90;;;;;;5092126;28;20048;-67
2021/01/10 05:57:26;;;;;;;23.92;12.32;;;-1.50;99.90;;;;;;5071677;28;20055;-66
2021/01/10 05:59:54;;;;;;;23.17;13.02;;;-1.50;99.90;;;;;;5091872;28;20044;-66
2021/01/10 06:02:31;;;;;;;22.65;13.13;;;-1.40;99.90;;;;;;5088020;28;20044;-68
2021/01/10 06:05:18;;;;;;;23.52;13.13;;;-1.40;99.90;;;;;;5057407;28;20460;-68
2021/01/10 06:07:46;;;;;;;22.35;12.18;;;-1.40;99.90;;;;;;5073994;28;20052;-67
2021/01/10 06:10:27;;;;;;;22.77;11.77;;;-1.40;99.90;;;;;;5092632;28;20048;-67
2021/01/10 06:13:07;;;;;;;22.50;12.82;;;-1.40;99.90;;;;;;5091668;28;20071;-67
2021/01/10 06:15:35;;;;;;;23.23;12.25;;;-1.30;99.90;;;;;;5083982;28;20448;-67
2021/01/10 06:18:04;;;;;;;21.90;11.80;;;-1.30;99.90;;;;;;5087580;28;20044;-66
2021/01/10 06:20:34;;;;;;;22.05;12.18;;;-1.30;99.90;;;;;;5091931;28;20072;-67
2021/01/10 06:23:07;;;;;;;22.60;12.68;;;-1.30;99.90;;;;;;5091647;28;20479;-67
2021/01/10 06:25:38;;;;;;;21.33;12.52;;;-1.30;99.90;;;;;;5090478;28;20071;-66
2021/01/10 06:28:11;;;;;;;21.95;13.50;;;-1.30;99.90;;;;;;5092435;28;20147;-66
2021/01/10 06:30:41;;;;;;;22.20;12.80;;;-1.30;99.90;;;;;;5092079;28;20052;-66
2021/01/10 06:33:11;;;;;;;20.45;11.85;;;-1.30;99.90;;;;;;5092434;28;20125;-66
2021/01/10 06:35:39;;;;;;;22.83;13.02;;;-1.30;99.90;;;;;;5092198;28;20135;-67
2021/01/10 06:38:09;;;;;;;22.80;12.65;;;-1.30;99.90;;;;;;5074487;28;20048;-66
2021/01/10 06:40:38;;;;;;;21.40;11.77;;;-1.30;99.90;;;;;;5083896;28;20044;-66
2021/01/10 06:43:07;;;;;;;21.60;11.70;;;-1.30;99.90;;;;;;5091818;28;20163;-66
2021/01/10 06:45:40;;;;;;;21.13;12.02;;;-1.30;99.90;;;;;;5088964;28;20144;-66
2021/01/10 06:48:08;;;;;;;22.33;11.65;;;-1.20;99.90;;;;;;5091710;28;20146;-64
2021/01/10 06:50:36;;;;;;;21.10;11.77;;;-1.20;99.90;;;;;;5086150;28;20157;-64
2021/01/10 06:53:08;;;;;;;22.85;12.65;;;-1.20;99.90;;;;;;5091143;28;20520;-65
2021/01/10 06:55:36;;;;;;;;;;;-1.10;99.90;;;;;;5087540;28;20052;-67
2021/01/10 06:58:09;;;;;;;23.90;11.85;;;-1.20;99.90;;;;;;5091779;28;19967;-67
2021/01/10 07:00:52;;;;;;;21.48;11.93;;;-1.10;99.90;;;;;;5091586;28;20130;-67
2021/01/10 07:03:18;;;;;;;21.27;11.43;;;-1.10;99.90;;;;;;5080883;28;20044;-67
2021/01/10 07:06:13;;;;;;;19.90;11.50;;;-1.10;99.90;;;;;;5090683;28;20098;-67
2021/01/10 07:08:43;;;;;;;20.38;11.10;;;-1.00;99.90;;;;;;5086990;28;20047;-67
2021/01/10 07:11:22;;;;;;;20.65;11.90;;;-1.00;99.90;;;;;;5090356;28;20426;-67
2021/01/10 07:13:50;;;;;;;20.70;11.63;;;-1.10;99.90;;;;;;5089884;28;20130;-67
2021/01/10 07:16:21;;;;;;;23.38;11.98;;;-1.10;99.90;;;;;;5090709;28;20040;-66
2021/01/10 07:18:49;;;;;;;22.10;11.90;;;-1.10;99.90;;;;;;5089543;28;20493;-67
2021/01/10 07:21:40;;;;;;;21.83;12.40;;;-1.10;99.90;;;;;;5091487;28;20059;-68
2021/01/10 07:24:13;;;;;;;24.58;11.95;;;-1.00;99.90;;;;;;5075928;28;20046;-67
2021/01/10 07:26:47;;;;;;;20.15;11.63;;;-1.00;99.90;;;;;;5091003;28;20087;-68
2021/01/10 07:29:42;;;;;;;22.52;12.82;;;-1.00;99.90;;;;;;5088919;28;20051;-67
2021/01/10 07:32:09;;;;;;;21.52;11.45;;;-1.00;99.90;;;;;;5087457;28;20493;-67
2021/01/10 07:34:57;;;;;;;21.70;11.93;;;-1.00;99.90;;;;;;5089920;28;20097;-67
2021/01/10 07:37:23;;;;;;;21.40;12.05;;;-0.90;99.90;;;;;;5089900;28;20052;-67
2021/01/10 07:39:51;;;;;;;20.98;11.43;;;-0.90;99.90;;;;;;5090653;28;20050;-67
2021/01/10 07:42:19;;;;;;;20.42;12.10;;;-0.90;99.90;;;;;;5081208;28;20531;-67
2021/01/10 07:44:46;;;;;;;22.25;11.88;;;-0.90;99.90;;;;;;5090084;28;20135;-67
2021/01/10 07:47:12;;;;;;;25.33;12.18;;;-0.80;99.90;;;;;;5083225;28;20060;-67
2021/01/10 07:49:56;;;;;;;23.33;12.65;;;-0.80;99.90;;;;;;5085776;28;20048;-67
2021/01/10 07:52:42;;;;;;;25.20;13.25;;;-0.80;99.90;;;;;;5073423;28;20139;-67
2021/01/10 07:55:18;;;;;;;23.08;12.00;;;-0.70;99.90;;;;;;5063433;28;20048;-67
2021/01/10 07:58:01;;;;;;;22.42;12.50;;;-0.70;99.90;;;;;;5088263;28;20056;-67
2021/01/10 08:00:32;;;;;;;23.15;12.75;;;-0.60;99.90;;;;;;5073532;28;20054;-66
2021/01/10 08:03:09;;;;;;;25.02;12.80;;;-0.60;99.90;;;;;;5085189;28;20048;-67
2021/01/10 08:05:40;;;;;;;20.42;11.55;;;-0.50;99.90;;;;;;5072357;28;20603;-67
2021/01/10 08:08:13;;;;;;;21.95;12.23;;;-0.40;99.90;;;;;;5090063;28;20490;-67
2021/01/10 08:10:51;;;;;;;23.83;13.27;;;-0.30;99.90;;;;;;5084456;28;20504;-67
2021/01/10 08:13:29;;;;;;;23.42;12.25;;;-0.30;99.90;;;;;;5086957;28;20058;-67
2021/01/10 08:16:18;;;;;;;25.65;14.25;;;-0.20;99.90;;;;;;5085255;28;20362;-67
2021/01/10 08:18:46;;;;;;;24.00;14.32;;;-0.10;99.90;;;;;;5082613;28;20062;-68
2021/01/10 08:21:15;;;;;;;24.25;13.48;;;-0.10;99.90;;;;;;5090235;28;20054;-67
2021/01/10 08:23:44;;;;;;;21.58;12.52;;;0.00;99.90;;;;;;5089313;28;20082;-67
2021/01/10 08:26:15;;;;;;;20.98;12.40;;;0.00;99.90;;;;;;5089374;28;20052;-67
2021/01/10 08:28:53;;;;;;;21.92;13.45;;;0.10;99.90;;;;;;5090566;28;20044;-68
2021/01/10 08:31:24;;;;;;;22.63;12.65;;;0.10;99.90;;;;;;5066392;28;20060;-68
2021/01/10 08:34:01;;;;;;;20.77;12.23;;;0.20;99.90;;;;;;5085602;28;20101;-67
2021/01/10 08:36:29;;;;;;;24.10;12.80;;;0.30;99.90;;;;;;5089542;28;20519;-68
2021/01/10 08:38:58;;;;;;;20.67;12.38;;;0.30;99.90;;;;;;5084644;28;20052;-68
2021/01/10 08:41:29;;;;;;;19.08;11.20;;;0.40;99.90;;;;;;5087351;28;20048;-68
2021/01/10 08:44:00;;;;;;;22.83;11.82;;;0.40;99.90;;;;;;5088759;28;20478;-68
2021/01/10 08:46:29;;;;;;;17.65;11.15;;;0.50;99.90;;;;;;5093981;28;20043;-68
2021/01/10 08:48:56;;;;;;;20.17;11.88;;;0.60;99.90;;;;;;5093798;28;20373;-68
2021/01/10 08:51:42;;;;;;;18.98;10.98;;;0.60;99.90;;;;;;5075820;28;20052;-68
2021/01/10 08:54:13;;;;;;;20.23;11.63;;;0.70;99.90;;;;;;5093716;28;20699;-68
2021/01/10 08:56:42;;;;;;;20.02;11.68;;;0.70;99.90;;;;;;5092475;28;20504;-66
2021/01/10 08:59:09;;;;;;;20.58;12.00;;;0.80;99.90;;;;;;5092028;28;20123;-67
2021/01/10 09:01:37;;;;;;;21.70;12.75;;;0.80;99.90;;;;;;5087250;28;20513;-68
2021/01/10 09:04:11;;;;;;;21.67;12.50;;;0.90;99.90;;;;;;5075847;28;20044;-66
2021/01/10 09:06:47;;;;;;;25.58;13.85;;;0.90;99.90;;;;;;5087800;28;20098;-66
2021/01/10 09:09:33;;;;;;;22.95;13.48;;;1.00;99.90;;;;;;5082259;28;20055;-65
2021/01/10 09:12:09;;;;;;;20.65;12.48;;;1.10;99.90;;;;;;5084083;28;20123;-66
2021/01/10 09:14:48;;;;;;;19.15;11.77;;;1.20;99.90;;;;;;5093028;28;20074;-66
2021/01/10 09:17:21;;;;;;;20.23;12.43;;;1.20;99.90;;;;;;5092823;28;20040;-66
2021/01/10 09:19:51;;;;;;;;;;;1.30;99.90;;;;;;5086312;28;20040;-66
2021/01/10 09:22:18;;;;;;;23.67;12.98;;;1.40;99.90;;;;;;5075777;28;19943;-66
2021/01/10 09:24:44;;;;;;;22.40;13.55;;;1.50;99.90;;;;;;5077459;28;20052;-66
2021/01/10 09:27:13;;;;;;;20.80;11.90;;;1.60;99.90;;;;;;5081793;28;20053;-66
2021/01/10 09:29:41;;;;;;;21.83;12.38;;;1.80;99.90;;;;;;5075719;28;20066;-66
2021/01/10 09:32:09;;;;;;;22.85;12.15;;;2.00;99.90;;;;;;5078215;28;20368;-69
2021/01/10 09:34:36;;;;;;;22.38;11.07;;;1.90;99.90;;;;;;5085162;28;20048;-66
2021/01/10 09:37:07;;;;;;;21.73;11.90;;;2.00;99.90;;;;;;5092898;28;20051;-66
2021/01/10 09:39:51;;;;;;;19.27;11.25;;;2.10;99.90;;;;;;5081069;28;20062;-68
2021/01/10 09:42:19;;;;;;;20.65;12.20;;;2.30;99.90;;;;;;5087930;28;20405;-67
2021/01/10 09:44:55;;;;;;;22.17;12.98;;;2.40;99.90;;;;;;5093010;28;20490;-66
2021/01/10 09:47:35;;;;;;;21.83;12.68;;;2.40;99.90;;;;;;5091923;28;20058;-67
2021/01/10 09:50:13;;;;;;;16.85;10.73;;;2.50;99.90;;;;;;5075302;28;20135;-66
2021/01/10 09:52:50;;;;;;;18.00;11.52;;;2.60;99.90;;;;;;5091344;28;20059;-67
2021/01/10 09:55:19;;;;;;;19.80;11.90;;;2.70;99.90;;;;;;5091975;28;20056;-66
2021/01/10 09:57:47;;;;;;;18.30;10.65;;;2.90;99.90;;;;;;5092282;28;20044;-66
2021/01/10 10:00:15;;;;;;;18.00;11.35;;;3.20;99.90;;;;;;5090037;28;20365;-67
2021/01/10 10:02:43;;;;;;;23.90;11.57;;;3.40;99.90;;;;;;5076214;28;20079;-67
2021/01/10 10:05:22;;;;;;;15.30;9.93;;;3.40;99.90;;;;;;5076008;28;20052;-68
2021/01/10 10:07:50;;;;;;;19.23;11.95;;;3.50;99.90;;;;;;5074332;28;20052;-68
2021/01/10 10:10:24;;;;;;;17.33;10.52;;;3.50;99.90;;;;;;5083190;28;20089;-67
2021/01/10 10:13:06;;;;;;;17.85;11.43;;;3.80;99.90;;;;;;5092334;28;20054;-69
2021/01/10 10:15:51;;;;;;;18.10;11.23;;;4.00;99.90;;;;;;5091843;28;20422;-68
2021/01/10 10:18:23;;;;;;;18.05;10.60;;;4.10;99.90;;;;;;5091739;28;20048;-68
2021/01/10 10:20:51;;;;;;;18.85;11.15;;;4.10;99.90;;;;;;5084600;28;20513;-67
2021/01/10 10:23:18;;;;;;;18.27;11.13;;;4.30;99.90;;;;;;5074302;28;20070;-68
2021/01/10 10:25:49;;;;;;;17.70;11.55;;;4.40;99.90;;;;;;5089084;28;20455;-68
2021/01/10 10:28:16;;;;;;;18.73;12.18;;;4.30;99.90;;;;;;5092703;28;20070;-68
2021/01/10 10:30:44;;;;;;;17.65;12.23;;;4.40;99.90;;;;;;5072760;28;20047;-68
2021/01/10 10:33:12;;;;;;;18.77;12.02;;;4.30;99.90;;;;;;5091724;28;20089;-67
2021/01/10 10:35:39;;;;;;;19.15;11.38;;;4.10;99.90;;;;;;5107096;28;20044;-67
2021/01/10 10:38:10;;;;;;;18.08;12.00;;;4.00;99.90;;;;;;5092301;28;20559;-67
2021/01/10 10:40:37;;;;;;;20.45;12.57;;;3.90;99.90;;;;;;5092562;28;20040;-67
2021/01/10 10:43:03;;;;;;;19.30;11.75;;;3.80;99.90;;;;;;5069059;28;20419;-68
2021/01/10 10:45:30;;;;;;;19.85;11.93;;;3.80;99.90;;;;;;5092061;28;20541;-68
2021/01/10 10:47:57;;;;;;;18.73;11.02;;;4.00;99.90;;;;;;5072214;28;20048;-68
2021/01/10 10:50:24;;;;;;;17.73;11.27;;;4.70;99.90;;;;;;5091725;28;20123;-68
2021/01/10 10:52:52;;;;;;;17.58;11.27;;;5.60;99.90;;;;;;5089380;28;20074;-68
2021/01/10 10:55:21;;;;;;;17.08;10.90;;;6.10;99.90;;;;;;5072789;28;20079;-67
2021/01/10 10:57:48;;;;;;;18.13;11.57;;;6.30;99.90;;;;;;5090446;28;20493;-67
2021/01/10 11:00:17;;;;;;;17.85;11.18;;;6.70;99.90;;;;;;5073421;28;20048;-67
2021/01/10 11:02:47;;;;;;;17.52;11.13;;;7.30;99.90;;;;;;5091651;28;20040;-67
2021/01/10 11:05:13;;;;;;;16.73;11.50;;;7.70;99.90;;;;;;5081218;28;20050;-67
2021/01/10 11:07:40;;;;;;;18.58;12.63;;;7.80;99.90;;;;;;5077423;28;20070;-67
2021/01/10 11:10:07;;;;;;;16.20;11.40;;;7.70;99.90;;;;;;5086916;28;20529;-67
2021/01/10 11:12:34;;;;;;;19.90;12.73;;;7.50;99.90;;;;;;5088555;28;20044;-67
2021/01/10 11:15:01;;;;;;;31.17;17.98;;;7.30;99.90;;;;;;5089335;28;20044;-68
2021/01/10 11:17:27;;;;;;;21.52;13.30;;;7.10;99.90;;;;;;5091061;28;20051;-67
2021/01/10 11:19:55;;;;;;;16.33;11.55;;;6.90;99.90;;;;;;5090679;28;20056;-67
2021/01/10 11:22:25;;;;;;;18.00;12.82;;;6.70;99.90;;;;;;5089106;28;20074;-68
2021/01/10 11:24:51;;;;;;;15.48;10.98;;;6.20;99.90;;;;;;5088069;28;20132;-70
2021/01/10 11:27:18;;;;;;;16.45;11.40;;;6.10;99.90;;;;;;5090079;28;20577;-69
2021/01/10 11:29:44;;;;;;;16.20;11.57;;;6.40;99.90;;;;;;5091383;28;20071;-69
2021/01/10 11:32:11;;;;;;;17.52;11.10;;;6.70;99.90;;;;;;5088413;28;20047;-69
2021/01/10 11:34:38;;;;;;;18.13;11.23;;;6.70;99.90;;;;;;5090175;28;20040;-68
2021/01/10 11:37:04;;;;;;;15.85;10.90;;;6.90;99.90;;;;;;5090378;28;20410;-69
2021/01/10 11:39:31;;;;;;;18.52;12.80;;;7.80;99.90;;;;;;5071923;28;20043;-68
2021/01/10 11:41:57;;;;;;;17.30;12.50;;;8.70;99.90;;;;;;5073192;28;20490;-68
2021/01/10 11:44:25;;;;;;;30.65;18.88;;;9.40;99.90;;;;;;5089956;28;20476;-69
2021/01/10 11:46:54;;;;;;;22.92;15.35;;;9.30;99.90;;;;;;5090092;28;20054;-68
2021/01/10 11:49:22;;;;;;;17.05;12.25;;;9.50;99.90;;;;;;5088438;28;20051;-70
2021/01/10 11:51:49;;;;;;;16.63;12.88;;;10.20;99.90;;;;;;5087915;28;20234;-68
2021/01/10 11:54:16;;;;;;;18.85;13.00;;;10.70;99.90;;;;;;5089866;28;20675;-68
2021/01/10 11:56:43;;;;;;;17.92;13.05;;;10.40;99.90;;;;;;5071753;28;20054;-70
2021/01/10 11:59:11;;;;;;;17.73;12.98;;;10.30;99.90;;;;;;5090174;28;20068;-70
2021/01/10 12:01:38;;;;;;;17.95;14.07;;;11.20;99.90;;;;;;5090040;28;20054;-70
2021/01/10 12:04:06;;;;;;;20.15;13.93;;;11.40;99.90;;;;;;5087165;28;20402;-71
2021/01/10 12:06:34;;;;;;;21.95;14.57;;;11.10;99.90;;;;;;5089640;28;20438;-69
2021/01/10 12:09:01;;;;;;;17.48;13.48;;;10.30;99.90;;;;;;5088999;28;20044;-69
2021/01/10 12:11:27;;;;;;;17.35;12.93;;;11.20;99.90;;;;;;5089350;28;20532;-69
2021/01/10 12:13:55;;;;;;;18.90;14.27;;;12.30;99.90;;;;;;5089653;28;20134;-69
2021/01/10 12:16:22;;;;;;;18.85;13.63;;;13.30;99.90;;;;;;5088057;28;20040;-68
2021/01/10 12:18:48;;;;;;;15.48;12.45;;;13.90;99.90;;;;;;5087580;28;20044;-68
2021/01/10 12:21:16;;;;;;;17.77;13.52;;;14.40;99.90;;;;;;5089105;28;20055;-69
2021/01/10 12:23:42;;;;;;;17.17;13.98;;;14.50;99.60;;;;;;5077612;28;20051;-68
2021/01/10 12:26:16;;;;;;;16.75;14.05;;;14.40;98.70;;;;;;5070324;28;20044;-68
2021/01/10 12:28:45;;;;;;;22.20;16.23;;;14.30;99.40;;;;;;5089995;28;20127;-68
2021/01/10 12:31:12;;;;;;;23.33;17.23;;;14.40;98.70;;;;;;5089787;28;20048;-68
2021/01/10 12:33:40;;;;;;;25.75;19.75;;;14.40;97.70;;;;;;5088398;28;20070;-68
2021/01/10 12:36:08;;;;;;;18.67;16.33;;;14.30;97.90;;;;;;5088042;28;20055;-69
2021/01/10 12:38:36;;;;;;;22.45;15.70;;;13.60;97.70;;;;;;5071416;28;20488;-67
2021/01/10 12:41:03;;;;;;;17.67;14.50;;;12.60;98.50;;;;;;5070697;28;20383;-68
2021/01/10 12:43:31;;;;;;;20.55;14.52;;;11.40;99.90;;;;;;5089401;28;20750;-69
2021/01/10 12:45:57;;;;;;;18.67;14.70;;;10.40;99.90;;;;;;5087248;28;20469;-69